createdAt,value
2022-10-23T00:01:56.772Z,2.43
2022-10-23T00:04:26.341Z,2.27
2022-10-23T00:06:54.549Z,2.73
2022-10-23T00:09:23.824Z,2.50
2022-10-23T00:11:52.327Z,2.40
2022-10-23T00:14:23.075Z,2.17
2022-10-23T00:16:51.565Z,2.30
2022-10-23T00:19:19.735Z,2.63
2022-10-23T00:21:47.904Z,2.50
2022-10-23T00:24:16.172Z,2.90
2022-10-23T00:26:44.584Z,2.03
2022-10-23T00:29:12.966Z,2.60
2022-10-23T00:31:42.456Z,2.33
2022-10-23T00:34:11.036Z,2.63
2022-10-23T00:36:39.208Z,2.30
2022-10-23T00:39:07.770Z,2.67
2022-10-23T00:41:35.931Z,2.63
2022-10-23T00:44:06.707Z,2.70
2022-10-23T00:46:35.248Z,2.50
2022-10-23T00:49:05.855Z,2.77
2022-10-23T00:51:37.558Z,2.30
2022-10-23T00:54:23.555Z,2.60
2022-10-23T00:56:53.414Z,2.33
2022-10-23T00:59:21.578Z,2.20
2022-10-23T01:01:49.911Z,2.63
2022-10-23T01:04:19.606Z,2.27
2022-10-23T01:06:53.072Z,2.30
2022-10-23T01:09:25.335Z,2.60
2022-10-23T01:11:57.625Z,2.70
2022-10-23T01:14:28.761Z,2.50
2022-10-23T01:17:02.164Z,2.50
2022-10-23T01:19:38.411Z,2.73
2022-10-23T01:22:10.798Z,2.33
2022-10-23T01:24:45.867Z,2.37
2022-10-23T01:27:17.591Z,2.70
2022-10-23T01:29:48.298Z,2.30
2022-10-23T01:32:18.389Z,2.47
2022-10-23T01:34:48.780Z,2.30
2022-10-23T01:37:20.628Z,2.10
2022-10-23T01:39:49.748Z,2.07
2022-10-23T01:42:21.159Z,2.20
2022-10-23T01:44:51.279Z,2.20
2022-10-23T01:49:54.215Z,2.13
2022-10-23T01:52:22.729Z,2.43
2022-10-23T01:54:51.769Z,2.20
2022-10-23T01:57:22.534Z,2.43
2022-10-23T01:59:52.925Z,1.77
2022-10-23T02:02:22.239Z,2.10
2022-10-23T02:04:52.692Z,2.00
2022-10-23T02:07:20.879Z,1.97
2022-10-23T02:09:49.105Z,2.10
2022-10-23T02:12:20.730Z,1.70
2022-10-23T02:14:53.375Z,1.70
2022-10-23T02:17:26.804Z,1.90
2022-10-23T02:19:59.459Z,1.60
2022-10-23T02:22:29.543Z,1.77
2022-10-23T02:24:59.745Z,1.80
2022-10-23T02:27:38.007Z,2.20
2022-10-23T02:30:08.386Z,1.50
2022-10-23T02:32:37.244Z,1.90
2022-10-23T02:35:05.851Z,1.57
2022-10-23T02:37:34.543Z,1.80
2022-10-23T02:40:03.861Z,1.50
2022-10-23T02:42:35.373Z,1.80
2022-10-23T02:45:07.073Z,1.70
2022-10-23T02:47:42.648Z,1.70
2022-10-23T02:50:13.531Z,1.83
2022-10-23T02:52:45.839Z,1.63
2022-10-23T02:55:19.230Z,1.47
2022-10-23T02:57:50.196Z,1.63
2022-10-23T03:00:19.932Z,1.60
2022-10-23T03:02:51.901Z,1.80
2022-10-23T03:05:21.325Z,1.73
2022-10-23T03:07:49.524Z,1.73
2022-10-23T03:10:17.713Z,1.70
2022-10-23T03:12:47.044Z,1.70
2022-10-23T03:15:15.197Z,1.40
2022-10-23T03:17:43.375Z,1.60
2022-10-23T03:20:13.531Z,1.53
2022-10-23T03:22:42.012Z,2.07
2022-10-23T03:25:10.952Z,1.40
2022-10-23T03:27:39.115Z,1.80
2022-10-23T03:30:08.157Z,1.77
2022-10-23T03:32:36.317Z,1.30
2022-10-23T03:35:04.568Z,1.60
2022-10-23T03:37:34.051Z,1.50
2022-10-23T03:40:02.220Z,1.40
2022-10-23T03:42:30.370Z,1.50
2022-10-23T03:44:58.508Z,1.80
2022-10-23T03:47:26.663Z,1.70
2022-10-23T03:49:54.807Z,1.93
2022-10-23T03:54:57.344Z,1.67
2022-10-23T03:57:25.464Z,1.67
2022-10-23T03:59:53.719Z,1.50
2022-10-23T04:02:21.968Z,1.60
2022-10-23T04:04:50.157Z,1.50
2022-10-23T04:07:18.440Z,1.60
2022-10-23T04:09:46.596Z,1.30
2022-10-23T04:12:16.115Z,1.80
2022-10-23T04:14:44.265Z,1.70
2022-10-23T04:17:12.420Z,1.77
2022-10-23T04:19:40.603Z,1.57
2022-10-23T04:22:08.739Z,1.90
2022-10-23T04:24:36.927Z,1.40
2022-10-23T04:27:05.105Z,1.50
2022-10-23T04:29:34.595Z,1.57
2022-10-23T04:32:02.736Z,1.53
2022-10-23T04:34:30.916Z,1.53
2022-10-23T04:36:59.054Z,1.50
2022-10-23T04:39:27.269Z,1.40
2022-10-23T04:41:55.412Z,1.50
2022-10-23T04:44:23.552Z,1.60
2022-10-23T04:46:53.040Z,1.50
2022-10-23T04:49:21.190Z,1.50
2022-10-23T04:51:49.379Z,1.70
2022-10-23T04:54:17.534Z,1.80
2022-10-23T04:56:45.702Z,1.60
2022-10-23T04:59:13.872Z,1.33
2022-10-23T05:01:42.085Z,1.67
2022-10-23T05:04:11.824Z,1.40
2022-10-23T05:06:39.974Z,1.30
2022-10-23T05:09:08.122Z,1.43
2022-10-23T05:11:36.311Z,1.30
2022-10-23T05:14:04.482Z,1.70
2022-10-23T05:16:37.656Z,1.60
2022-10-23T05:19:06.873Z,1.50
2022-10-23T05:21:37.568Z,1.30
2022-10-23T05:24:05.977Z,1.30
2022-10-23T05:26:34.202Z,1.97
2022-10-23T05:29:02.328Z,1.17
2022-10-23T05:31:30.584Z,1.10
2022-10-23T05:33:58.752Z,1.20
2022-10-23T05:36:27.335Z,1.23
2022-10-23T05:38:56.897Z,1.10
2022-10-23T05:41:25.037Z,1.20
2022-10-23T05:43:53.204Z,1.20
2022-10-23T05:46:23.017Z,1.20
2022-10-23T05:48:52.241Z,1.00
2022-10-23T05:51:22.852Z,1.40
2022-10-23T05:53:51.134Z,1.40
2022-10-23T05:56:20.673Z,1.10
2022-10-23T05:58:48.800Z,1.23
2022-10-23T06:01:18.482Z,1.10
2022-10-23T06:03:46.774Z,1.00
2022-10-23T06:06:14.912Z,1.10
2022-10-23T06:08:43.060Z,0.90
2022-10-23T06:11:12.136Z,1.17
2022-10-23T06:13:43.824Z,1.30
2022-10-23T06:16:12.367Z,1.17
2022-10-23T06:18:40.530Z,1.20
2022-10-23T06:21:09.001Z,1.10
2022-10-23T06:23:38.331Z,1.10
2022-10-23T06:26:07.514Z,1.10
2022-10-23T06:28:35.675Z,1.00
2022-10-23T06:31:10.290Z,1.10
2022-10-23T06:33:38.622Z,1.07
2022-10-23T06:36:10.151Z,1.20
2022-10-23T06:38:40.196Z,1.23
2022-10-23T06:41:09.178Z,1.30
2022-10-23T06:43:37.300Z,1.10
2022-10-23T06:46:07.076Z,1.10
2022-10-23T06:48:35.255Z,1.00
2022-10-23T06:51:06.980Z,1.17
2022-10-23T06:53:35.668Z,1.10
2022-10-23T06:56:04.449Z,1.07
2022-10-23T06:58:32.920Z,1.20
2022-10-23T07:01:02.465Z,1.23
2022-10-23T07:03:32.012Z,1.40
2022-10-23T07:06:01.616Z,1.10
2022-10-23T07:08:29.860Z,1.40
2022-10-23T07:10:58.006Z,1.00
2022-10-23T07:13:26.208Z,1.17
2022-10-23T07:15:54.366Z,1.20
2022-10-23T07:18:22.576Z,0.90
2022-10-23T07:20:58.795Z,1.10
2022-10-23T07:23:26.953Z,1.43
2022-10-23T07:25:55.116Z,1.00
2022-10-23T07:28:23.238Z,1.10
2022-10-23T07:30:57.636Z,1.50
2022-10-23T07:33:25.769Z,1.20
2022-10-23T07:35:55.300Z,1.00
2022-10-23T07:38:23.463Z,1.47
2022-10-23T07:40:51.657Z,1.30
2022-10-23T07:43:20.939Z,1.20
2022-10-23T07:45:50.262Z,1.20
2022-10-23T07:48:18.429Z,0.80
2022-10-23T07:50:46.613Z,1.20
2022-10-23T07:53:18.874Z,1.20
2022-10-23T07:55:53.136Z,1.10
2022-10-23T07:58:21.408Z,1.23
2022-10-23T08:00:54.405Z,1.07
2022-10-23T08:03:22.879Z,1.07
2022-10-23T08:05:51.053Z,1.00
2022-10-23T08:08:20.540Z,1.50
2022-10-23T08:10:48.883Z,1.20
2022-10-23T08:13:17.060Z,1.07
2022-10-23T08:15:45.948Z,1.17
2022-10-23T08:18:14.099Z,1.20
2022-10-23T08:20:42.708Z,1.50
2022-10-23T08:23:12.204Z,1.27
2022-10-23T08:25:41.844Z,1.10
2022-10-23T08:28:10.471Z,1.23
2022-10-23T08:30:38.869Z,1.10
2022-10-23T08:33:07.356Z,1.67
2022-10-23T08:35:37.423Z,1.33
2022-10-23T08:38:05.765Z,1.20
2022-10-23T08:40:34.075Z,1.60
2022-10-23T08:43:07.443Z,2.13
2022-10-23T08:45:37.971Z,1.43
2022-10-23T08:48:11.619Z,1.30
2022-10-23T08:50:42.735Z,1.63
2022-10-23T08:53:15.685Z,1.50
2022-10-23T08:55:45.664Z,1.20
2022-10-23T08:58:17.571Z,1.50
2022-10-23T09:00:46.338Z,1.80
2022-10-23T09:03:15.027Z,1.70
2022-10-23T09:05:53.799Z,1.23
2022-10-23T09:08:26.858Z,1.77
2022-10-23T09:11:03.771Z,1.93
2022-10-23T09:13:40.072Z,2.43
2022-10-23T09:16:13.041Z,1.70
2022-10-23T09:18:42.909Z,2.00
2022-10-23T09:21:11.439Z,2.07
2022-10-23T09:23:40.030Z,2.10
2022-10-23T09:26:13.452Z,2.00
2022-10-23T09:28:46.018Z,1.60
2022-10-23T09:31:14.597Z,1.90
2022-10-23T09:33:43.050Z,1.60
2022-10-23T09:36:23.418Z,1.70
2022-10-23T09:38:53.280Z,1.63
2022-10-23T09:41:23.156Z,1.70
2022-10-23T09:44:02.523Z,2.00
2022-10-23T09:46:40.239Z,1.70
2022-10-23T09:49:15.697Z,1.90
2022-10-23T09:51:49.372Z,1.60
2022-10-23T09:54:19.385Z,1.70
2022-10-23T09:56:49.995Z,1.83
2022-10-23T09:59:23.826Z,1.77
2022-10-23T10:01:52.960Z,1.67
2022-10-23T10:04:21.298Z,1.87
2022-10-23T10:06:58.269Z,1.83
2022-10-23T10:09:26.428Z,1.40
2022-10-23T10:11:56.522Z,1.60
2022-10-23T10:14:44.483Z,1.80
2022-10-23T10:17:16.329Z,1.60
2022-10-23T10:19:51.635Z,1.60
2022-10-23T10:22:25.282Z,1.63
2022-10-23T10:24:57.657Z,1.70
2022-10-23T10:27:33.141Z,1.60
2022-10-23T10:30:06.767Z,1.50
2022-10-23T10:32:40.594Z,2.27
2022-10-23T10:35:32.496Z,2.00
2022-10-23T10:38:12.319Z,1.83
2022-10-23T10:40:43.202Z,1.63
2022-10-23T10:43:18.479Z,1.60
2022-10-23T10:45:48.798Z,2.17
2022-10-23T10:48:22.747Z,1.70
2022-10-23T10:50:52.618Z,1.93
2022-10-23T10:53:25.856Z,1.77
2022-10-23T10:55:55.393Z,1.93
2022-10-23T10:58:25.892Z,2.33
2022-10-23T11:00:57.764Z,2.57
2022-10-23T11:03:30.325Z,1.60
2022-10-23T11:08:44.556Z,2.10
2022-10-23T11:11:26.441Z,1.77
2022-10-23T11:13:54.874Z,2.10
2022-10-23T11:16:26.101Z,1.50
2022-10-23T11:18:58.553Z,1.67
2022-10-23T11:21:30.743Z,1.43
2022-10-23T11:24:16.869Z,2.00
2022-10-23T11:26:52.802Z,1.80
2022-10-23T11:29:26.543Z,1.80
2022-10-23T11:32:13.220Z,1.60
2022-10-23T11:34:46.514Z,1.70
2022-10-23T11:37:18.034Z,1.57
2022-10-23T11:39:57.664Z,1.87
2022-10-23T11:42:31.365Z,1.60
2022-10-23T11:44:59.597Z,1.70
2022-10-23T11:47:34.986Z,1.80
2022-10-23T11:50:13.584Z,1.77
2022-10-23T11:53:09.243Z,2.20
2022-10-23T11:55:42.049Z,1.90
2022-10-23T11:58:22.898Z,2.17
2022-10-23T12:00:53.748Z,1.87
2022-10-23T12:03:24.639Z,1.50
2022-10-23T12:05:59.070Z,1.80
2022-10-23T12:08:28.373Z,1.90
2022-10-23T12:10:56.671Z,1.60
2022-10-23T12:13:32.737Z,1.47
2022-10-23T12:16:01.274Z,1.60
2022-10-23T12:18:30.843Z,1.90
2022-10-23T12:20:59.613Z,1.53
2022-10-23T12:23:48.158Z,1.63
2022-10-23T12:26:25.093Z,1.60
2022-10-23T12:28:58.701Z,1.83
2022-10-23T12:31:31.284Z,1.50
2022-10-23T12:34:06.907Z,1.53
2022-10-23T12:36:53.576Z,1.83
2022-10-23T12:39:28.696Z,2.03
2022-10-23T12:41:57.148Z,1.93
2022-10-23T12:44:26.069Z,2.47
2022-10-23T12:46:56.896Z,2.20
2022-10-23T12:49:27.220Z,2.40
2022-10-23T12:51:58.893Z,1.90
2022-10-23T12:54:27.518Z,2.20
2022-10-23T12:56:55.993Z,2.03
2022-10-23T12:59:27.013Z,1.53
2022-10-23T13:01:55.580Z,1.70
2022-10-23T13:04:28.462Z,1.90
2022-10-23T13:06:57.174Z,2.20
2022-10-23T13:09:26.889Z,2.10
2022-10-23T13:11:56.511Z,1.97
2022-10-23T13:14:31.921Z,2.77
2022-10-23T13:17:01.039Z,2.33
2022-10-23T13:19:30.804Z,1.70
2022-10-23T13:21:59.427Z,2.00
2022-10-23T13:24:28.760Z,1.80
2022-10-23T13:26:56.949Z,1.90
2022-10-23T13:29:26.814Z,1.80
2022-10-23T13:31:54.992Z,1.93
2022-10-23T13:34:24.790Z,2.27
2022-10-23T13:37:01.848Z,1.73
2022-10-23T13:39:31.296Z,2.23
2022-10-23T13:42:03.616Z,2.00
2022-10-23T13:44:32.485Z,2.20
2022-10-23T13:47:00.620Z,1.97
2022-10-23T13:49:28.763Z,2.67
2022-10-23T13:51:57.619Z,2.57
2022-10-23T13:57:01.140Z,2.67
2022-10-23T13:59:29.292Z,1.70
2022-10-23T14:01:57.647Z,1.90
2022-10-23T14:04:25.897Z,1.67
2022-10-23T14:06:58.328Z,1.40
2022-10-23T14:09:27.829Z,2.30
2022-10-23T14:11:55.981Z,2.60
2022-10-23T14:14:24.139Z,1.87
2022-10-23T14:16:52.752Z,2.47
2022-10-23T14:19:20.915Z,4.17
2022-10-23T14:21:49.043Z,5.00
2022-10-23T14:24:17.210Z,3.97
2022-10-23T14:26:47.019Z,3.47
2022-10-23T14:29:21.293Z,3.10
2022-10-23T14:31:51.381Z,2.20
2022-10-23T14:34:19.511Z,2.10
2022-10-23T14:37:03.478Z,2.30
2022-10-23T14:39:35.799Z,1.87
2022-10-23T14:42:05.390Z,2.30
2022-10-23T14:44:33.602Z,2.20
2022-10-23T14:47:03.012Z,2.30
2022-10-23T14:49:31.181Z,2.33
2022-10-23T14:51:59.488Z,2.53
2022-10-23T14:54:29.215Z,2.03
2022-10-23T14:56:57.372Z,2.50
2022-10-23T14:59:26.927Z,2.13
2022-10-23T15:01:55.064Z,2.20
2022-10-23T15:04:23.212Z,2.53
2022-10-23T15:06:51.383Z,2.20
2022-10-23T15:09:20.226Z,2.40
2022-10-23T15:11:48.765Z,2.87
2022-10-23T15:14:16.933Z,2.30
2022-10-23T15:16:47.447Z,3.00
2022-10-23T15:19:18.526Z,2.63
2022-10-23T15:21:47.457Z,2.77
2022-10-23T15:24:15.623Z,2.90
2022-10-23T15:26:44.366Z,2.73
2022-10-23T15:29:15.874Z,3.50
2022-10-23T15:31:45.249Z,3.60
2022-10-23T15:34:15.440Z,3.10
2022-10-23T15:36:44.782Z,2.90
2022-10-23T15:39:13.166Z,2.97
2022-10-23T15:41:42.003Z,3.40
2022-10-23T15:44:10.988Z,2.63
2022-10-23T15:46:39.143Z,2.77
2022-10-23T15:49:08.334Z,2.70
2022-10-23T15:51:38.205Z,3.43
2022-10-23T15:54:06.433Z,3.10
2022-10-23T15:56:34.654Z,3.07
2022-10-23T15:59:02.832Z,3.00
2022-10-23T16:01:31.132Z,3.33
2022-10-23T16:03:59.371Z,3.00
2022-10-23T16:06:27.539Z,2.90
2022-10-23T16:08:57.054Z,2.93
2022-10-23T16:11:26.346Z,3.03
2022-10-23T16:13:55.854Z,2.87
2022-10-23T16:16:24.081Z,3.27
2022-10-23T16:18:52.421Z,3.00
2022-10-23T16:21:21.432Z,2.73
2022-10-23T16:23:49.634Z,2.47
2022-10-23T16:26:20.320Z,2.60
2022-10-23T16:28:49.884Z,2.47
2022-10-23T16:31:20.691Z,2.60
2022-10-23T16:33:49.045Z,2.17
2022-10-23T16:36:17.559Z,2.50
2022-10-23T16:38:45.686Z,2.20
2022-10-23T16:41:14.033Z,2.00
2022-10-23T16:43:43.541Z,2.03
2022-10-23T16:46:13.628Z,2.00
2022-10-23T16:48:41.823Z,1.80
2022-10-23T16:51:11.782Z,2.30
2022-10-23T16:53:40.059Z,1.70
2022-10-23T16:56:09.127Z,2.07
2022-10-23T16:58:37.665Z,1.70
2022-10-23T17:01:08.191Z,1.80
2022-10-23T17:03:37.401Z,1.63
2022-10-23T17:06:08.873Z,1.47
2022-10-23T17:08:39.402Z,1.43
2022-10-23T17:11:08.851Z,1.40
2022-10-23T17:13:37.352Z,1.50
2022-10-23T17:16:08.047Z,1.30
2022-10-23T17:18:39.880Z,1.30
2022-10-23T17:21:12.105Z,1.10
2022-10-23T17:23:40.268Z,1.37
2022-10-23T17:26:08.715Z,1.20
2022-10-23T17:28:41.593Z,1.77
2022-10-23T17:31:15.790Z,1.20
2022-10-23T17:33:44.151Z,1.20
2022-10-23T17:36:12.394Z,1.53
2022-10-23T17:38:41.310Z,1.20
2022-10-23T17:41:10.090Z,1.80
2022-10-23T17:43:38.772Z,1.20
2022-10-23T17:46:07.899Z,1.30
2022-10-23T17:48:37.748Z,1.33
2022-10-23T17:51:07.649Z,1.70
2022-10-23T17:53:36.334Z,1.40
2022-10-23T17:56:04.564Z,1.47
2022-10-23T17:58:33.225Z,1.10
2022-10-23T18:01:05.812Z,1.53
2022-10-23T18:03:34.123Z,1.20
2022-10-23T18:06:08.849Z,1.30
2022-10-23T18:08:36.994Z,1.77
2022-10-23T18:11:05.498Z,1.70
2022-10-23T18:13:35.052Z,1.20
2022-10-23T18:16:03.694Z,1.10
2022-10-23T18:18:32.021Z,1.10
2022-10-23T18:21:00.244Z,1.40
2022-10-23T18:23:30.795Z,1.40
2022-10-23T18:25:59.576Z,1.40
2022-10-23T18:28:28.276Z,1.30
2022-10-23T18:30:57.178Z,1.47
2022-10-23T18:33:26.495Z,1.77
2022-10-23T18:35:54.656Z,1.50
2022-10-23T18:38:22.842Z,1.70
2022-10-23T18:40:55.066Z,1.93
2022-10-23T18:43:41.980Z,1.57
2022-10-23T18:46:12.016Z,1.50
2022-10-23T18:48:40.163Z,1.30
2022-10-23T18:51:15.703Z,1.70
2022-10-23T18:53:46.519Z,1.40
2022-10-23T18:56:21.468Z,1.60
2022-10-23T18:58:49.917Z,1.90
2022-10-23T19:01:18.302Z,1.80
2022-10-23T19:03:46.730Z,1.50
2022-10-23T19:06:15.486Z,1.83
2022-10-23T19:08:44.488Z,1.77
2022-10-23T19:11:13.389Z,2.23
2022-10-23T19:13:42.952Z,1.90
2022-10-23T19:16:14.479Z,1.70
2022-10-23T19:18:43.719Z,1.93
2022-10-23T19:21:12.078Z,2.10
2022-10-23T19:23:42.303Z,2.67
2022-10-23T19:26:11.957Z,2.03
2022-10-23T19:28:42.294Z,1.97
2022-10-23T19:31:12.077Z,2.03
2022-10-23T19:33:40.369Z,1.87
2022-10-23T19:36:12.548Z,1.73
2022-10-23T19:38:42.535Z,1.90
2022-10-23T19:41:10.691Z,1.70
2022-10-23T19:43:39.084Z,1.63
2022-10-23T19:46:11.084Z,2.23
2022-10-23T19:48:44.406Z,1.80
2022-10-23T19:51:13.837Z,2.20
2022-10-23T19:53:42.874Z,2.00
2022-10-23T19:56:11.925Z,2.30
2022-10-23T19:58:43.591Z,2.33
2022-10-23T20:01:13.013Z,1.80
2022-10-23T20:03:45.269Z,1.73
2022-10-23T20:06:14.488Z,2.40
2022-10-23T20:08:44.644Z,1.90
2022-10-23T20:11:19.472Z,2.30
2022-10-23T20:13:48.806Z,2.20
2022-10-23T20:16:22.754Z,2.40
2022-10-23T20:18:52.257Z,2.20
2022-10-23T20:21:20.745Z,1.83
2022-10-23T20:23:49.216Z,2.10
2022-10-23T20:26:18.414Z,1.77
2022-10-23T20:28:48.404Z,2.30
2022-10-23T20:31:17.576Z,2.00
2022-10-23T20:33:45.936Z,2.70
2022-10-23T20:36:24.611Z,2.00
2022-10-23T20:38:53.056Z,2.27
2022-10-23T20:41:21.580Z,2.50
2022-10-23T20:43:49.904Z,2.50
2022-10-23T20:46:18.324Z,1.90
2022-10-23T20:48:46.813Z,2.57
2022-10-23T20:51:15.702Z,2.60
2022-10-23T20:53:45.941Z,2.40
2022-10-23T20:56:14.842Z,1.93
2022-10-23T20:58:43.152Z,2.03
2022-10-23T21:01:12.552Z,2.00
2022-10-23T21:03:41.189Z,2.37
2022-10-23T21:06:10.191Z,2.60
2022-10-23T21:08:38.735Z,1.87
2022-10-23T21:11:09.304Z,2.37
2022-10-23T21:13:37.464Z,2.40
2022-10-23T21:16:13.150Z,2.50
2022-10-23T21:18:45.914Z,2.30
2022-10-23T21:21:16.898Z,2.10
2022-10-23T21:23:45.089Z,2.40
2022-10-23T21:26:14.879Z,2.40
2022-10-23T21:28:55.863Z,2.53
2022-10-23T21:31:33.631Z,2.40
2022-10-23T21:34:01.834Z,2.40
2022-10-23T21:36:31.027Z,2.53
2022-10-23T21:39:01.396Z,2.80
2022-10-23T21:41:31.707Z,2.93
2022-10-23T21:44:01.305Z,2.43
2022-10-23T21:46:30.590Z,2.40
2022-10-23T21:49:00.331Z,2.20
2022-10-23T21:51:29.779Z,2.43
2022-10-23T21:53:58.856Z,1.97
2022-10-23T21:56:28.747Z,2.60
2022-10-23T21:58:58.574Z,1.93
2022-10-23T22:01:27.272Z,2.20
2022-10-23T22:03:55.887Z,2.70
2022-10-23T22:06:25.144Z,2.10
2022-10-23T22:08:53.508Z,1.80
2022-10-23T22:11:21.854Z,1.90
2022-10-23T22:13:50.733Z,2.50
2022-10-23T22:16:20.541Z,2.83
2022-10-23T22:18:49.027Z,2.20
2022-10-23T22:21:18.245Z,2.53
2022-10-23T22:23:48.992Z,1.90
2022-10-23T22:26:22.082Z,1.97
2022-10-23T22:28:50.296Z,2.10
2022-10-23T22:31:20.621Z,2.30
2022-10-23T22:33:48.787Z,2.20
2022-10-23T22:36:18.857Z,2.23
2022-10-23T22:38:47.012Z,2.60
2022-10-23T22:41:15.518Z,2.47
2022-10-23T22:43:43.707Z,2.27
2022-10-23T22:46:12.917Z,2.40
2022-10-23T22:48:42.416Z,2.47
2022-10-23T22:51:12.191Z,2.37
2022-10-23T22:53:40.413Z,2.77
2022-10-23T22:56:09.305Z,2.87
2022-10-23T22:58:37.844Z,2.60
2022-10-23T23:01:07.665Z,2.90
2022-10-23T23:03:36.858Z,2.63
2022-10-23T23:06:07.359Z,2.50
2022-10-23T23:08:35.997Z,2.80
2022-10-23T23:11:04.183Z,2.90
2022-10-23T23:13:32.496Z,3.00
2022-10-23T23:16:00.888Z,3.00
2022-10-23T23:18:29.241Z,2.80
2022-10-23T23:21:01.584Z,3.17
2022-10-23T23:23:31.193Z,3.70
2022-10-23T23:25:59.462Z,3.13
2022-10-23T23:28:27.605Z,2.67
2022-10-23T23:31:03.799Z,2.93
2022-10-23T23:33:31.952Z,3.13
2022-10-23T23:36:00.141Z,3.03
2022-10-23T23:38:28.763Z,3.90
2022-10-23T23:40:58.351Z,3.33
2022-10-23T23:43:26.509Z,2.87
2022-10-23T23:45:54.669Z,2.63
2022-10-23T23:48:22.800Z,2.90
2022-10-23T23:50:52.160Z,2.60
2022-10-23T23:53:20.435Z,2.40
2022-10-23T23:55:48.618Z,2.83
2022-10-23T23:58:18.199Z,2.23
